createdAt,value
2017-10-26T00:02:03.549Z,8.84
2017-10-26T00:04:31.352Z,8.79
2017-10-26T00:06:58.894Z,8.79
2017-10-26T00:09:26.303Z,8.81
2017-10-26T00:11:54.173Z,8.76
2017-10-26T00:14:21.647Z,8.73
2017-10-26T00:16:49.079Z,8.72
2017-10-26T00:19:16.641Z,8.68
2017-10-26T00:21:44.051Z,8.65
2017-10-26T00:24:11.486Z,8.72
2017-10-26T00:26:38.945Z,8.73
2017-10-26T00:29:06.397Z,8.69
2017-10-26T00:31:33.833Z,8.62
2017-10-26T00:34:01.293Z,8.61
2017-10-26T00:36:28.721Z,8.55
2017-10-26T00:38:56.166Z,8.47
2017-10-26T00:41:23.605Z,8.42
2017-10-26T00:43:51.113Z,8.36
2017-10-26T00:46:18.517Z,8.30
2017-10-26T00:48:46.031Z,8.28
2017-10-26T00:51:13.482Z,8.26
2017-10-26T00:53:41.080Z,8.26
2017-10-26T00:56:08.579Z,8.24
2017-10-26T00:58:36.092Z,8.28
2017-10-26T01:01:04.556Z,8.28
2017-10-26T01:03:32.144Z,8.29
2017-10-26T01:05:59.673Z,8.28
2017-10-26T01:08:27.187Z,8.27
2017-10-26T01:10:54.690Z,8.27
2017-10-26T01:13:22.192Z,8.28
2017-10-26T01:15:49.617Z,8.31
2017-10-26T01:18:17.473Z,8.34
2017-10-26T01:20:44.898Z,8.37
2017-10-26T01:23:13.041Z,8.37
2017-10-26T01:25:40.702Z,8.35
2017-10-26T01:28:08.233Z,8.28
2017-10-26T01:30:35.686Z,8.18
2017-10-26T01:33:03.188Z,8.07
2017-10-26T01:35:30.678Z,8.05
2017-10-26T01:37:58.366Z,8.03
2017-10-26T01:40:25.879Z,8.03
2017-10-26T01:42:53.308Z,8.03
2017-10-26T01:45:20.764Z,7.99
2017-10-26T01:47:48.249Z,7.95
2017-10-26T01:50:15.698Z,7.98
2017-10-26T01:52:43.133Z,7.96
2017-10-26T01:55:10.612Z,7.93
2017-10-26T01:57:38.071Z,7.88
2017-10-26T02:00:05.711Z,7.86
2017-10-26T02:02:33.422Z,7.87
2017-10-26T02:05:01.816Z,7.90
2017-10-26T02:07:29.257Z,7.85
2017-10-26T02:09:56.722Z,7.79
2017-10-26T02:12:24.276Z,7.75
2017-10-26T02:14:51.817Z,7.83
2017-10-26T02:17:19.301Z,7.82
2017-10-26T02:19:46.810Z,7.74
2017-10-26T02:22:14.320Z,7.71
2017-10-26T02:24:41.872Z,7.70
2017-10-26T02:27:09.304Z,7.63
2017-10-26T02:29:48.622Z,7.57
2017-10-26T02:32:16.091Z,7.54
2017-10-26T02:34:43.659Z,7.51
2017-10-26T02:37:11.160Z,7.52
2017-10-26T02:39:38.620Z,7.52
2017-10-26T02:42:06.126Z,7.48
2017-10-26T02:44:33.605Z,7.46
2017-10-26T02:47:01.138Z,7.54
2017-10-26T02:49:28.660Z,7.55
2017-10-26T02:51:57.095Z,7.55
2017-10-26T02:54:24.554Z,7.55
2017-10-26T02:56:51.979Z,7.55
2017-10-26T02:59:19.795Z,7.54
2017-10-26T03:01:47.305Z,7.51
2017-10-26T03:04:14.746Z,7.51
2017-10-26T03:06:42.307Z,7.56
2017-10-26T03:09:09.796Z,7.58
2017-10-26T03:11:37.209Z,7.51
2017-10-26T03:14:05.526Z,7.38
2017-10-26T03:16:32.988Z,7.32
2017-10-26T03:19:00.463Z,7.33
2017-10-26T03:21:27.991Z,7.34
2017-10-26T03:23:55.452Z,7.30
2017-10-26T03:26:22.912Z,7.27
2017-10-26T03:28:50.460Z,7.24
2017-10-26T03:31:17.921Z,7.27
2017-10-26T03:33:45.432Z,7.27
2017-10-26T03:36:12.951Z,7.22
2017-10-26T03:38:40.462Z,7.18
2017-10-26T03:41:08.013Z,7.16
2017-10-26T03:43:35.605Z,7.14
2017-10-26T03:46:03.037Z,7.14
2017-10-26T03:48:31.384Z,7.08
2017-10-26T03:50:59.259Z,7.04
2017-10-26T03:53:26.734Z,7.03
2017-10-26T03:55:54.276Z,7.01
2017-10-26T03:58:21.815Z,6.98
2017-10-26T04:00:49.381Z,6.95
2017-10-26T04:03:16.843Z,7.00
2017-10-26T04:05:44.357Z,7.00
2017-10-26T04:08:11.860Z,7.03
2017-10-26T04:10:39.406Z,7.09
2017-10-26T04:13:07.180Z,7.15
2017-10-26T04:15:34.703Z,7.13
2017-10-26T04:18:02.292Z,7.16
2017-10-26T04:20:29.938Z,7.22
2017-10-26T04:22:57.457Z,7.26
2017-10-26T04:25:24.945Z,7.24
2017-10-26T04:27:52.615Z,7.25
2017-10-26T04:30:20.066Z,7.23
2017-10-26T04:32:47.519Z,7.22
2017-10-26T04:35:15.547Z,7.21
2017-10-26T04:37:43.035Z,7.19
2017-10-26T04:40:10.594Z,7.12
2017-10-26T04:42:38.201Z,7.05
2017-10-26T04:45:06.177Z,7.00
2017-10-26T04:47:33.658Z,7.00
2017-10-26T04:50:01.128Z,6.96
2017-10-26T04:52:28.614Z,6.98
2017-10-26T04:54:56.074Z,7.02
2017-10-26T04:57:23.602Z,7.05
2017-10-26T04:59:51.143Z,7.05
2017-10-26T05:02:18.610Z,7.03
2017-10-26T05:04:46.432Z,7.01
2017-10-26T05:07:13.845Z,6.96
2017-10-26T05:09:41.427Z,6.87
2017-10-26T05:12:09.079Z,6.80
2017-10-26T05:14:37.111Z,6.75
2017-10-26T05:17:04.606Z,6.76
2017-10-26T05:19:32.134Z,6.74
2017-10-26T05:21:59.575Z,6.71
2017-10-26T05:24:27.024Z,6.65
2017-10-26T05:26:54.736Z,6.63
2017-10-26T05:29:22.266Z,6.60
2017-10-26T05:31:49.695Z,6.60
2017-10-26T05:34:17.167Z,6.63
2017-10-26T05:36:44.855Z,6.68
2017-10-26T05:39:12.342Z,6.69
2017-10-26T05:41:39.790Z,6.68
2017-10-26T05:44:07.261Z,6.65
2017-10-26T05:46:34.778Z,6.65
2017-10-26T05:49:02.237Z,6.65
2017-10-26T05:51:29.695Z,6.69
2017-10-26T05:53:57.199Z,6.68
2017-10-26T05:56:25.161Z,6.67
2017-10-26T05:58:52.619Z,6.67
2017-10-26T06:01:20.199Z,6.68
2017-10-26T06:03:47.707Z,6.72
2017-10-26T06:06:15.291Z,6.66
2017-10-26T06:08:42.817Z,6.58
2017-10-26T06:11:10.474Z,6.54
2017-10-26T06:13:37.914Z,6.56
2017-10-26T06:16:05.999Z,6.55
2017-10-26T06:18:33.463Z,6.58
2017-10-26T06:21:00.941Z,6.56
2017-10-26T06:23:28.357Z,6.57
2017-10-26T06:25:56.030Z,6.54
2017-10-26T06:28:23.470Z,6.61
2017-10-26T06:30:50.954Z,6.68
2017-10-26T06:33:18.435Z,6.72
2017-10-26T06:35:45.977Z,6.73
2017-10-26T06:38:13.467Z,6.79
2017-10-26T06:40:41.060Z,6.77
2017-10-26T06:43:08.524Z,6.77
2017-10-26T06:45:36.127Z,6.82
2017-10-26T06:48:03.602Z,6.84
2017-10-26T06:50:31.036Z,6.87
2017-10-26T06:52:58.472Z,6.91
2017-10-26T06:55:26.003Z,7.00
2017-10-26T06:57:53.498Z,7.06
2017-10-26T07:00:20.955Z,7.15
2017-10-26T07:02:48.599Z,7.23
2017-10-26T07:05:16.097Z,7.36
2017-10-26T07:07:43.589Z,7.48
2017-10-26T07:10:11.081Z,7.48
2017-10-26T07:12:39.159Z,7.55
2017-10-26T07:15:06.580Z,7.62
2017-10-26T07:17:34.185Z,7.70
2017-10-26T07:20:01.653Z,7.69
2017-10-26T07:22:29.102Z,7.69
2017-10-26T07:24:57.183Z,7.70
2017-10-26T07:27:24.638Z,7.84
2017-10-26T07:29:52.061Z,7.99
2017-10-26T07:32:19.514Z,8.14
2017-10-26T07:34:47.008Z,8.26
2017-10-26T07:37:14.469Z,8.38
2017-10-26T07:39:41.939Z,8.49
2017-10-26T07:42:09.401Z,8.60
2017-10-26T07:44:36.839Z,8.67
2017-10-26T07:47:04.758Z,8.73
2017-10-26T07:49:32.166Z,8.87
2017-10-26T07:51:59.617Z,8.97
2017-10-26T07:54:27.178Z,9.01
2017-10-26T07:56:54.638Z,9.11
2017-10-26T07:59:22.205Z,9.22
2017-10-26T08:01:49.964Z,9.11
2017-10-26T08:04:17.451Z,9.22
2017-10-26T08:06:44.962Z,9.40
2017-10-26T08:09:12.426Z,9.60
2017-10-26T08:11:39.880Z,9.70
2017-10-26T08:14:07.474Z,9.72
2017-10-26T08:16:35.053Z,9.77
2017-10-26T08:19:02.512Z,9.76
2017-10-26T08:21:30.019Z,9.72
2017-10-26T08:23:57.853Z,9.78
2017-10-26T08:26:25.338Z,9.92
2017-10-26T08:28:52.970Z,9.99
2017-10-26T08:31:20.545Z,10.02
2017-10-26T08:33:48.085Z,10.18
2017-10-26T08:36:15.565Z,10.25
2017-10-26T08:38:43.115Z,10.54
2017-10-26T08:41:10.606Z,10.64
2017-10-26T08:43:38.113Z,10.75
2017-10-26T08:46:05.694Z,10.85
2017-10-26T08:48:33.165Z,10.93
2017-10-26T08:51:00.719Z,11.00
2017-10-26T08:53:28.241Z,11.01
2017-10-26T08:55:55.755Z,11.02
2017-10-26T08:58:23.275Z,11.12
2017-10-26T09:00:50.919Z,11.18
2017-10-26T09:03:18.390Z,11.23
2017-10-26T09:05:46.255Z,11.31
2017-10-26T09:08:13.864Z,11.31
2017-10-26T09:10:41.324Z,11.35
2017-10-26T09:13:08.849Z,11.35
2017-10-26T09:15:36.401Z,11.44
2017-10-26T09:18:03.871Z,11.54
2017-10-26T09:20:31.344Z,11.69
2017-10-26T09:22:59.289Z,11.92
2017-10-26T09:25:26.893Z,12.12
2017-10-26T09:27:55.286Z,12.31
2017-10-26T09:30:22.788Z,12.44
2017-10-26T09:32:55.972Z,12.53
2017-10-26T09:35:23.560Z,12.55
2017-10-26T09:37:51.098Z,12.58
2017-10-26T09:40:19.059Z,12.73
2017-10-26T09:42:46.620Z,12.93
2017-10-26T09:45:14.117Z,13.15
2017-10-26T09:47:45.332Z,13.31
2017-10-26T09:50:12.940Z,13.54
2017-10-26T09:52:40.478Z,13.73
2017-10-26T09:55:07.926Z,13.89
2017-10-26T09:57:35.495Z,14.04
2017-10-26T10:00:03.948Z,14.10
2017-10-26T10:02:31.590Z,14.27
2017-10-26T10:04:59.153Z,14.34
2017-10-26T10:07:27.342Z,14.08
2017-10-26T10:09:54.886Z,14.05
2017-10-26T10:12:22.538Z,14.05
2017-10-26T10:14:50.009Z,14.35
2017-10-26T10:17:17.521Z,14.19
2017-10-26T10:19:45.038Z,14.32
2017-10-26T10:22:12.575Z,14.23
2017-10-26T10:24:40.036Z,14.19
2017-10-26T10:27:07.735Z,14.35
2017-10-26T10:29:35.292Z,14.59
2017-10-26T10:32:02.932Z,14.74
2017-10-26T10:34:30.403Z,14.86
2017-10-26T10:36:57.976Z,15.02
2017-10-26T10:39:25.485Z,15.17
2017-10-26T10:41:53.091Z,15.47
2017-10-26T10:44:20.622Z,15.57
2017-10-26T10:46:48.075Z,15.74
2017-10-26T10:49:15.697Z,15.88
2017-10-26T10:51:43.195Z,15.95
2017-10-26T10:54:10.677Z,16.10
2017-10-26T10:56:38.267Z,16.14
2017-10-26T10:59:11.270Z,16.32
2017-10-26T11:01:39.019Z,16.57
2017-10-26T11:04:06.651Z,16.69
2017-10-26T11:09:00.907Z,16.80
2017-10-26T11:11:28.522Z,16.82
2017-10-26T11:13:55.979Z,16.88
2017-10-26T11:16:23.453Z,17.16
2017-10-26T11:18:50.989Z,17.29
2017-10-26T11:21:18.616Z,17.49
2017-10-26T11:23:46.086Z,17.53
2017-10-26T11:26:13.575Z,17.59
2017-10-26T11:28:41.102Z,17.56
2017-10-26T11:31:08.560Z,17.76
2017-10-26T11:33:36.113Z,17.77
2017-10-26T11:36:03.564Z,17.83
2017-10-26T11:38:31.058Z,17.84
2017-10-26T11:40:58.920Z,18.05
2017-10-26T11:43:26.363Z,18.33
2017-10-26T11:45:53.826Z,18.46
2017-10-26T11:48:21.327Z,18.41
2017-10-26T11:50:48.795Z,18.55
2017-10-26T11:53:16.783Z,18.74
2017-10-26T11:55:44.229Z,18.56
2017-10-26T11:58:11.714Z,18.66
2017-10-26T12:00:39.209Z,18.78
2017-10-26T12:03:06.829Z,18.76
2017-10-26T12:05:34.376Z,18.80
2017-10-26T12:08:01.841Z,18.87
2017-10-26T12:10:29.738Z,18.98
2017-10-26T12:12:57.166Z,18.91
2017-10-26T12:15:24.712Z,19.07
2017-10-26T12:17:52.426Z,19.24
2017-10-26T12:20:19.854Z,19.30
2017-10-26T12:22:47.376Z,19.34
2017-10-26T12:25:15.251Z,19.33
2017-10-26T12:27:42.718Z,19.41
2017-10-26T12:30:10.150Z,19.53
2017-10-26T12:32:37.644Z,19.46
2017-10-26T12:35:05.109Z,19.32
2017-10-26T12:37:32.641Z,19.38
2017-10-26T12:40:00.232Z,19.49
2017-10-26T12:42:27.771Z,19.63
2017-10-26T12:44:55.252Z,19.72
2017-10-26T12:47:22.768Z,19.72
2017-10-26T12:49:50.218Z,19.67
2017-10-26T12:52:17.693Z,19.82
2017-10-26T12:54:45.274Z,19.96
2017-10-26T12:57:12.897Z,19.96
2017-10-26T12:59:40.347Z,19.95
2017-10-26T13:02:08.090Z,20.04
2017-10-26T13:04:35.581Z,20.04
2017-10-26T13:07:03.058Z,20.14
2017-10-26T13:09:30.611Z,20.21
2017-10-26T13:11:58.169Z,20.31
2017-10-26T13:14:28.803Z,20.63
2017-10-26T13:16:57.180Z,20.69
2017-10-26T13:19:24.654Z,20.74
2017-10-26T13:21:52.205Z,20.91
2017-10-26T13:24:19.742Z,21.03
2017-10-26T13:26:47.200Z,21.17
2017-10-26T13:29:14.656Z,21.29
2017-10-26T13:31:42.211Z,21.33
2017-10-26T13:34:09.662Z,21.34
2017-10-26T13:36:38.127Z,21.29
2017-10-26T13:39:05.716Z,21.38
2017-10-26T13:41:33.309Z,21.24
2017-10-26T13:44:00.762Z,21.21
2017-10-26T13:46:28.342Z,21.32
2017-10-26T13:48:55.792Z,21.36
2017-10-26T13:51:23.334Z,21.29
2017-10-26T13:53:50.861Z,21.29
2017-10-26T13:56:18.335Z,21.25
2017-10-26T13:58:45.793Z,21.29
2017-10-26T14:01:14.455Z,21.32
2017-10-26T14:03:42.201Z,21.33
2017-10-26T14:06:09.761Z,21.35
2017-10-26T14:08:38.254Z,21.30
2017-10-26T14:11:05.722Z,21.12
2017-10-26T14:13:33.166Z,20.91
2017-10-26T14:16:00.626Z,20.87
2017-10-26T14:18:28.127Z,20.63
2017-10-26T14:20:55.634Z,20.48
2017-10-26T14:23:23.130Z,20.59
2017-10-26T14:25:50.812Z,20.54
2017-10-26T14:28:18.439Z,20.35
2017-10-26T14:30:45.999Z,20.20
2017-10-26T14:33:13.593Z,20.16
2017-10-26T14:35:41.039Z,20.19
2017-10-26T14:38:08.564Z,20.08
2017-10-26T14:40:36.108Z,20.03
2017-10-26T14:43:03.806Z,20.05
2017-10-26T14:45:31.385Z,20.06
2017-10-26T14:47:59.001Z,19.97
2017-10-26T14:50:26.728Z,19.91
2017-10-26T14:52:54.498Z,19.80
2017-10-26T14:55:22.340Z,19.68
2017-10-26T14:57:50.033Z,19.64
2017-10-26T15:00:17.678Z,19.49
2017-10-26T15:02:45.332Z,19.44
2017-10-26T15:05:12.904Z,19.40
2017-10-26T15:07:42.496Z,19.40
2017-10-26T15:10:10.292Z,19.38
2017-10-26T15:12:37.926Z,19.42
2017-10-26T15:15:05.599Z,19.34
2017-10-26T15:17:36.208Z,19.34
2017-10-26T15:20:03.753Z,19.32
2017-10-26T15:22:31.548Z,19.21
2017-10-26T15:24:59.150Z,19.06
2017-10-26T15:27:27.673Z,18.90
2017-10-26T15:29:55.732Z,18.68
2017-10-26T15:32:23.390Z,18.51
2017-10-26T15:34:50.947Z,18.32
2017-10-26T15:37:20.013Z,18.24
2017-10-26T15:39:47.887Z,18.03
2017-10-26T15:42:16.795Z,17.84
2017-10-26T15:44:44.536Z,17.61
2017-10-26T15:47:12.093Z,17.37
2017-10-26T15:49:39.725Z,17.18
2017-10-26T15:52:07.743Z,16.95
2017-10-26T15:54:35.344Z,16.76
2017-10-26T15:57:03.104Z,16.54
2017-10-26T15:59:31.040Z,16.35
2017-10-26T16:01:59.560Z,16.14
2017-10-26T16:04:27.459Z,15.93
2017-10-26T16:06:55.087Z,15.74
2017-10-26T16:09:22.581Z,15.56
2017-10-26T16:11:50.304Z,15.42
2017-10-26T16:14:17.901Z,15.27
2017-10-26T16:16:45.477Z,15.17
2017-10-26T16:19:13.025Z,15.07
2017-10-26T16:21:41.085Z,14.93
2017-10-26T16:24:08.915Z,14.77
2017-10-26T16:26:36.541Z,14.67
2017-10-26T16:29:04.277Z,14.59
2017-10-26T16:31:32.023Z,14.52
2017-10-26T16:33:59.602Z,14.43
2017-10-26T16:36:27.532Z,14.35
2017-10-26T16:38:55.184Z,14.28
2017-10-26T16:41:22.861Z,14.19
2017-10-26T16:43:51.856Z,14.11
2017-10-26T16:46:26.495Z,14.01
2017-10-26T16:48:55.783Z,13.91
2017-10-26T16:51:23.387Z,13.80
2017-10-26T16:53:51.020Z,13.71
2017-10-26T16:56:19.679Z,13.61
2017-10-26T16:58:47.669Z,13.56
2017-10-26T17:01:15.451Z,13.50
2017-10-26T17:03:43.151Z,13.43
2017-10-26T17:06:10.839Z,13.35
2017-10-26T17:08:38.441Z,13.32
2017-10-26T17:11:06.035Z,13.27
2017-10-26T17:13:34.876Z,13.20
2017-10-26T17:16:02.516Z,13.13
2017-10-26T17:18:31.961Z,13.08
2017-10-26T17:20:59.807Z,13.03
2017-10-26T17:23:28.372Z,12.96
2017-10-26T17:25:56.154Z,12.87
2017-10-26T17:28:30.844Z,12.82
2017-10-26T17:30:58.630Z,12.77
2017-10-26T17:33:27.313Z,12.69
2017-10-26T17:35:56.774Z,12.67
2017-10-26T17:38:25.224Z,12.63
2017-10-26T17:40:52.811Z,12.60
2017-10-26T17:43:20.438Z,12.57
2017-10-26T17:45:48.186Z,12.53
2017-10-26T17:48:26.162Z,12.51
2017-10-26T17:53:33.361Z,12.40
2017-10-26T17:56:01.089Z,12.35
2017-10-26T17:58:29.432Z,12.31
2017-10-26T18:03:36.548Z,12.17
2017-10-26T18:06:06.118Z,12.13
2017-10-26T18:08:34.090Z,12.11
2017-10-26T18:11:01.683Z,12.06
2017-10-26T18:13:29.322Z,12.04
2017-10-26T18:15:56.883Z,11.99
2017-10-26T18:18:25.164Z,11.94
2017-10-26T18:20:53.157Z,11.93
2017-10-26T18:23:20.732Z,11.93
2017-10-26T18:25:48.367Z,11.91
2017-10-26T18:28:15.955Z,11.92
2017-10-26T18:30:43.781Z,11.91
2017-10-26T18:33:11.397Z,11.86
2017-10-26T18:35:39.088Z,11.79
2017-10-26T18:38:07.447Z,11.77
2017-10-26T18:40:34.953Z,11.73
2017-10-26T18:45:37.093Z,11.69
2017-10-26T18:48:04.954Z,11.66
2017-10-26T18:50:32.603Z,11.65
2017-10-26T18:53:00.191Z,11.62
2017-10-26T18:55:27.991Z,11.58
2017-10-26T18:57:55.706Z,11.57
2017-10-26T19:00:23.212Z,11.57
2017-10-26T19:02:51.606Z,11.55
2017-10-26T19:05:19.298Z,11.57
2017-10-26T19:07:46.885Z,11.55
2017-10-26T19:10:14.347Z,11.48
2017-10-26T19:12:41.864Z,11.42
2017-10-26T19:15:09.396Z,11.37
2017-10-26T19:17:36.905Z,11.39
2017-10-26T19:20:04.627Z,11.34
2017-10-26T19:22:32.313Z,11.28
2017-10-26T19:24:59.773Z,11.22
2017-10-26T19:27:27.661Z,11.23
2017-10-26T19:29:55.130Z,11.19
2017-10-26T19:32:22.624Z,11.13
2017-10-26T19:34:50.150Z,11.09
2017-10-26T19:37:18.772Z,11.04
2017-10-26T19:39:46.286Z,10.98
2017-10-26T19:42:13.948Z,10.96
2017-10-26T19:44:41.570Z,10.92
2017-10-26T19:47:09.196Z,10.87
2017-10-26T19:49:36.953Z,10.83
2017-10-26T19:52:05.140Z,10.80
2017-10-26T19:54:32.701Z,10.84
2017-10-26T19:57:00.296Z,10.82
2017-10-26T19:59:27.830Z,10.76
2017-10-26T20:01:55.477Z,10.78
2017-10-26T20:04:22.986Z,10.73
2017-10-26T20:06:50.573Z,10.70
2017-10-26T20:09:18.187Z,10.66
2017-10-26T20:11:45.799Z,10.59
2017-10-26T20:14:13.407Z,10.50
2017-10-26T20:16:41.099Z,10.44
2017-10-26T20:19:08.707Z,10.45
2017-10-26T20:21:36.273Z,10.44
2017-10-26T20:24:03.990Z,10.47
2017-10-26T20:26:31.690Z,10.44
2017-10-26T20:28:59.219Z,10.41
2017-10-26T20:31:26.801Z,10.37
2017-10-26T20:33:54.348Z,10.39
2017-10-26T20:36:21.938Z,10.34
2017-10-26T20:38:49.532Z,10.35
2017-10-26T20:41:17.181Z,10.34
2017-10-26T20:43:44.636Z,10.32
2017-10-26T20:46:12.282Z,10.30
2017-10-26T20:48:39.793Z,10.23
2017-10-26T20:54:19.824Z,10.20
2017-10-26T20:56:52.867Z,10.16
2017-10-26T20:59:26.056Z,10.17
2017-10-26T21:01:59.140Z,10.21
2017-10-26T21:04:32.253Z,10.18
2017-10-26T21:06:59.759Z,10.13
2017-10-26T21:09:27.450Z,10.06
2017-10-26T21:12:00.593Z,10.00
2017-10-26T21:14:29.003Z,9.98
2017-10-26T21:16:56.446Z,9.90
2017-10-26T21:19:23.950Z,9.92
2017-10-26T21:21:51.464Z,9.91
2017-10-26T21:24:18.977Z,9.87
2017-10-26T21:26:46.537Z,9.83
2017-10-26T21:29:14.044Z,9.90
2017-10-26T21:31:41.523Z,9.90
2017-10-26T21:34:09.006Z,9.89
2017-10-26T21:36:36.482Z,9.87
2017-10-26T21:39:04.197Z,9.83
2017-10-26T21:41:31.886Z,9.86
2017-10-26T21:43:59.541Z,9.88
2017-10-26T21:46:27.053Z,9.84
2017-10-26T21:48:54.530Z,9.86
2017-10-26T21:51:22.248Z,9.83
2017-10-26T21:53:49.712Z,9.81
2017-10-26T21:56:17.910Z,9.79
2017-10-26T21:58:45.390Z,9.75
2017-10-26T22:01:13.053Z,9.78
2017-10-26T22:03:40.609Z,9.75
2017-10-26T22:06:08.071Z,9.70
2017-10-26T22:08:35.585Z,9.73
2017-10-26T22:11:03.183Z,9.69
2017-10-26T22:13:30.720Z,9.71
2017-10-26T22:15:58.227Z,9.74
2017-10-26T22:18:25.732Z,9.71
2017-10-26T22:20:53.226Z,9.68
2017-10-26T22:23:20.800Z,9.68
2017-10-26T22:25:48.266Z,9.63
2017-10-26T22:28:15.901Z,9.62
2017-10-26T22:30:43.578Z,9.52
2017-10-26T22:33:11.125Z,9.51
2017-10-26T22:35:38.786Z,9.47
2017-10-26T22:38:06.674Z,9.40
2017-10-26T22:40:34.631Z,9.35
2017-10-26T22:43:02.188Z,9.33
2017-10-26T22:45:30.433Z,9.34
2017-10-26T22:47:58.032Z,9.35
2017-10-26T22:50:25.582Z,9.36
2017-10-26T22:52:53.118Z,9.31
2017-10-26T22:55:20.597Z,9.32
2017-10-26T22:57:48.164Z,9.27
2017-10-26T23:00:15.725Z,9.28
2017-10-26T23:02:43.270Z,9.22
2017-10-26T23:05:10.725Z,9.20
2017-10-26T23:07:38.182Z,9.16
2017-10-26T23:10:05.781Z,9.22
2017-10-26T23:12:33.268Z,9.19
2017-10-26T23:15:00.847Z,9.14
2017-10-26T23:17:28.400Z,9.10
2017-10-26T23:19:55.879Z,9.06
2017-10-26T23:22:23.352Z,9.02
2017-10-26T23:24:50.913Z,8.93
2017-10-26T23:27:18.469Z,8.90
2017-10-26T23:29:46.020Z,8.89
2017-10-26T23:32:13.580Z,8.83
2017-10-26T23:34:41.126Z,8.81
2017-10-26T23:37:08.591Z,8.78
2017-10-26T23:39:36.080Z,8.77
2017-10-26T23:42:03.600Z,8.75
2017-10-26T23:44:31.069Z,8.75
2017-10-26T23:46:58.732Z,8.73
2017-10-26T23:49:26.180Z,8.69
2017-10-26T23:51:53.713Z,8.75
2017-10-26T23:54:21.295Z,8.75
2017-10-26T23:56:48.841Z,8.75
2017-10-26T23:59:16.316Z,8.76
